createdAt,value
2016-03-27T00:00:51.486Z,75.64
2016-03-27T00:01:51.472Z,75.74
2016-03-27T00:02:51.460Z,75.64
2016-03-27T00:03:51.447Z,76.12
2016-03-27T00:04:51.434Z,76.03
2016-03-27T00:05:51.421Z,75.93
2016-03-27T00:06:51.408Z,76.03
2016-03-27T00:07:51.396Z,75.64
2016-03-27T00:08:51.383Z,75.84
2016-03-27T00:09:51.369Z,76.21
2016-03-27T00:10:51.357Z,76.03
2016-03-27T00:11:51.360Z,76.5
2016-03-27T00:12:51.330Z,76.5
2016-03-27T00:13:51.333Z,76.31
2016-03-27T00:14:51.304Z,76.88
2016-03-27T00:15:51.292Z,76.5
2016-03-27T00:16:51.278Z,76.69
2016-03-27T00:17:51.260Z,77.07
2016-03-27T00:18:51.233Z,76.4
2016-03-27T00:19:51.205Z,76.69
2016-03-27T00:20:51.176Z,76.98
2016-03-27T00:21:51.149Z,76.69
2016-03-27T00:22:51.124Z,76.79
2016-03-27T00:23:51.106Z,76.59
2016-03-27T00:24:51.088Z,76.98
2016-03-27T00:25:51.069Z,76.69
2016-03-27T00:26:51.051Z,76.59
2016-03-27T00:27:51.050Z,76.59
2016-03-27T00:28:51.034Z,76.69
2016-03-27T00:29:51.019Z,76.88
2016-03-27T00:30:51.004Z,76.88
2016-03-27T00:31:50.974Z,76.79
2016-03-27T00:32:50.958Z,76.88
2016-03-27T00:33:50.960Z,77.07
2016-03-27T00:34:50.931Z,77.45
2016-03-27T00:35:50.933Z,77.61
2016-03-27T00:36:50.918Z,77.45
2016-03-27T00:37:50.890Z,77.89
2016-03-27T00:38:50.893Z,77.61
2016-03-27T00:39:50.865Z,77.8
2016-03-27T00:40:50.867Z,77.7
2016-03-27T00:41:50.838Z,77.61
2016-03-27T00:42:50.840Z,77.8
2016-03-27T00:43:50.829Z,77.61
2016-03-27T00:44:50.799Z,77.89
2016-03-27T00:45:50.801Z,77.61
2016-03-27T00:46:50.789Z,77.7
2016-03-27T00:47:50.776Z,77.61
2016-03-27T00:48:50.764Z,77.42
2016-03-27T00:49:50.750Z,77.51
2016-03-27T00:50:50.737Z,77.26
2016-03-27T00:51:50.725Z,77.42
2016-03-27T00:52:50.712Z,77.89
2016-03-27T00:53:50.698Z,77.7
2016-03-27T00:54:50.685Z,76.84
2016-03-27T00:55:50.673Z,76.59
2016-03-27T00:56:50.660Z,76.69
2016-03-27T00:57:50.647Z,77.17
2016-03-27T00:58:50.634Z,77.17
2016-03-27T00:59:50.636Z,76.79
2016-03-27T01:00:50.608Z,76.69
2016-03-27T01:01:50.595Z,76.79
2016-03-27T01:02:50.582Z,76.5
2016-03-27T01:03:50.569Z,75.64
2016-03-27T01:04:50.557Z,75.59
2016-03-27T01:05:50.543Z,75.01
2016-03-27T01:06:50.531Z,75.2
2016-03-27T01:07:50.522Z,74.92
2016-03-27T01:08:50.508Z,74.44
2016-03-27T01:09:50.495Z,73.58
2016-03-27T01:10:50.483Z,73.52
2016-03-27T01:11:50.672Z,73.52
2016-03-27T01:12:50.457Z,73.24
2016-03-27T01:13:50.459Z,72.96
2016-03-27T01:14:50.430Z,72.28
2016-03-27T01:15:50.419Z,72.19
2016-03-27T01:16:50.421Z,72.09
2016-03-27T01:17:50.391Z,71.52
2016-03-27T01:18:50.380Z,71.52
2016-03-27T01:19:50.366Z,71.62
2016-03-27T01:20:50.353Z,71.81
2016-03-27T01:21:50.341Z,71.33
2016-03-27T01:22:50.327Z,71.18
2016-03-27T01:23:50.315Z,71.08
2016-03-27T01:24:50.318Z,71.27
2016-03-27T01:25:50.288Z,71.08
2016-03-27T01:26:50.290Z,70.98
2016-03-27T01:27:50.279Z,71.08
2016-03-27T01:28:50.265Z,71.18
2016-03-27T01:29:50.252Z,71.27
2016-03-27T01:30:50.224Z,70.98
2016-03-27T01:31:50.257Z,70.98
2016-03-27T01:32:50.214Z,70.89
2016-03-27T01:33:50.404Z,70.89
2016-03-27T01:34:50.187Z,71.08
2016-03-27T01:35:50.175Z,71.08
2016-03-27T01:36:50.162Z,70.98
2016-03-27T01:37:50.148Z,70.98
2016-03-27T01:38:50.136Z,70.7
2016-03-27T01:39:50.123Z,70.7
2016-03-27T01:40:50.111Z,70.13
2016-03-27T01:41:50.098Z,70.51
2016-03-27T01:42:49.975Z,70.7
2016-03-27T01:43:50.086Z,70.61
2016-03-27T01:44:50.074Z,70.51
2016-03-27T01:45:50.264Z,70.51
2016-03-27T01:46:50.095Z,70.16
2016-03-27T01:47:50.035Z,69.49
2016-03-27T01:48:50.022Z,69.78
2016-03-27T01:49:50.010Z,69.97
2016-03-27T01:50:49.997Z,69.68
2016-03-27T01:51:49.983Z,69.49
2016-03-27T01:52:49.971Z,69.31
2016-03-27T01:53:49.958Z,69.21
2016-03-27T01:54:50.444Z,69.21
2016-03-27T01:55:49.932Z,69.21
2016-03-27T01:56:49.935Z,69.11
2016-03-27T01:57:49.921Z,68.73
2016-03-27T01:58:49.909Z,68.73
2016-03-27T01:59:49.896Z,67.97
2016-03-27T02:00:49.882Z,67.87
2016-03-27T02:01:49.979Z,67.68
2016-03-27T02:02:49.857Z,67.77
2016-03-27T02:03:49.843Z,67.77
2016-03-27T02:04:49.832Z,67.49
2016-03-27T02:05:49.818Z,67.87
2016-03-27T02:06:49.813Z,67.58
2016-03-27T02:07:49.792Z,67.3
2016-03-27T02:08:49.818Z,67.3
2016-03-27T02:09:49.789Z,67.11
2016-03-27T02:10:49.881Z,67.11
2016-03-27T02:11:49.915Z,67.4
2016-03-27T02:12:49.745Z,67.49
2016-03-27T02:13:49.734Z,67.11
2016-03-27T02:14:49.720Z,67.01
2016-03-27T02:15:49.706Z,67.21
2016-03-27T02:16:49.694Z,67.21
2016-03-27T02:17:49.681Z,67.4
2016-03-27T02:18:49.684Z,67.77
2016-03-27T02:19:49.672Z,67.97
2016-03-27T02:20:49.658Z,68.16
2016-03-27T02:21:49.645Z,67.97
2016-03-27T02:22:49.633Z,68.16
2016-03-27T02:23:49.619Z,67.97
2016-03-27T02:24:49.605Z,67.77
2016-03-27T02:25:49.593Z,67.58
2016-03-27T02:26:49.580Z,67.68
2016-03-27T02:27:49.568Z,67.58
2016-03-27T02:28:49.555Z,68.44
2016-03-27T02:29:49.541Z,67.77
2016-03-27T02:30:49.544Z,67.87
2016-03-27T02:31:49.547Z,68.06
2016-03-27T02:32:49.518Z,68.16
2016-03-27T02:33:49.505Z,67.77
2016-03-27T02:34:49.492Z,67.87
2016-03-27T02:35:49.480Z,67.77
2016-03-27T02:36:49.467Z,67.97
2016-03-27T02:37:49.454Z,68.54
2016-03-27T02:38:49.441Z,68.35
2016-03-27T02:39:49.459Z,68.54
2016-03-27T02:40:49.431Z,68.26
2016-03-27T02:41:49.418Z,67.97
2016-03-27T02:42:49.404Z,67.77
2016-03-27T02:43:49.376Z,68.16
2016-03-27T02:44:49.378Z,67.93
2016-03-27T02:45:49.366Z,67.65
2016-03-27T02:46:49.353Z,68.03
2016-03-27T02:47:49.340Z,67.83
2016-03-27T02:48:49.327Z,67.97
2016-03-27T02:49:49.314Z,68.12
2016-03-27T02:50:49.301Z,67.83
2016-03-27T02:51:49.288Z,68.03
2016-03-27T02:52:49.291Z,67.36
2016-03-27T02:53:49.294Z,67.55
2016-03-27T02:54:49.265Z,67.83
2016-03-27T02:55:49.252Z,68.7
2016-03-27T02:56:49.239Z,67.83
2016-03-27T02:57:49.226Z,67.65
2016-03-27T02:58:49.214Z,67.65
2016-03-27T02:59:49.200Z,67.55
2016-03-27T03:00:49.187Z,66.88
2016-03-27T03:01:49.175Z,67.01
2016-03-27T03:02:49.162Z,66.78
2016-03-27T03:03:49.149Z,66.72
2016-03-27T03:04:49.136Z,66.72
2016-03-27T03:05:49.138Z,66.82
2016-03-27T03:06:49.141Z,66.82
2016-03-27T03:07:49.113Z,67.97
2016-03-27T03:08:49.099Z,68.98
2016-03-27T03:09:49.086Z,69.46
2016-03-27T03:10:49.074Z,69.65
2016-03-27T03:11:49.061Z,69.65
2016-03-27T03:12:49.048Z,69.46
2016-03-27T03:13:49.035Z,68.79
2016-03-27T03:14:49.022Z,68.79
2016-03-27T03:15:49.025Z,69.27
2016-03-27T03:16:49.012Z,69.74
2016-03-27T03:17:48.998Z,69.56
2016-03-27T03:18:48.986Z,69.56
2016-03-27T03:19:48.973Z,69.65
2016-03-27T03:20:48.960Z,70.13
2016-03-27T03:21:48.948Z,70.51
2016-03-27T03:22:48.934Z,70.79
2016-03-27T03:23:48.936Z,70.51
2016-03-27T03:24:48.925Z,70.98
2016-03-27T03:25:48.911Z,70.89
2016-03-27T03:26:48.883Z,70.79
2016-03-27T03:27:48.869Z,71.66
2016-03-27T03:28:48.872Z,71.46
2016-03-27T03:29:48.859Z,71.66
2016-03-27T03:30:48.847Z,71.84
2016-03-27T03:31:48.833Z,72.13
2016-03-27T03:32:48.820Z,72.03
2016-03-27T03:33:48.808Z,72.23
2016-03-27T03:34:48.794Z,72.32
2016-03-27T03:35:48.781Z,72.32
2016-03-27T03:36:48.785Z,72.32
2016-03-27T03:37:48.771Z,72.61
2016-03-27T03:38:48.759Z,73.18
2016-03-27T03:39:48.746Z,72.71
2016-03-27T03:40:48.732Z,73.85
2016-03-27T03:41:48.720Z,75.28
2016-03-27T03:42:48.707Z,76.14
2016-03-27T03:43:48.693Z,76.1
2016-03-27T03:44:48.681Z,76.86
2016-03-27T03:45:48.668Z,78.01
2016-03-27T03:46:48.655Z,77.82
2016-03-27T03:47:48.658Z,77.06
2016-03-27T03:48:48.645Z,76.86
2016-03-27T03:49:48.631Z,76.86
2016-03-27T03:50:48.619Z,77.25
2016-03-27T03:51:48.606Z,78.1
2016-03-27T03:52:48.592Z,78.96
2016-03-27T03:53:48.580Z,78.96
2016-03-27T03:54:48.567Z,79.35
2016-03-27T03:55:48.554Z,78.96
2016-03-27T03:56:48.558Z,79.35
2016-03-27T03:57:48.528Z,79.53
2016-03-27T03:58:48.516Z,79.82
2016-03-27T03:59:48.502Z,80.58
2016-03-27T04:00:48.489Z,80.68
2016-03-27T04:01:48.477Z,80.96
2016-03-27T04:02:48.463Z,82.3
2016-03-27T04:03:48.451Z,82.68
2016-03-27T04:04:48.438Z,83.97
2016-03-27T04:05:48.441Z,84.36
2016-03-27T04:06:48.427Z,84.55
2016-03-27T04:07:48.417Z,84.92
2016-03-27T04:08:48.403Z,85.78
2016-03-27T04:09:48.390Z,85.69
2016-03-27T04:10:48.378Z,85.78
2016-03-27T04:11:48.364Z,85.88
2016-03-27T04:12:48.352Z,86.93
2016-03-27T04:13:48.339Z,87.69
2016-03-27T04:14:48.326Z,87.6
2016-03-27T04:15:48.313Z,87.65
2016-03-27T04:16:48.300Z,87.46
2016-03-27T04:17:48.287Z,88.03
2016-03-27T04:18:48.275Z,89.07
2016-03-27T04:19:48.277Z,90.03
2016-03-27T04:20:48.263Z,90.22
2016-03-27T04:21:48.252Z,90.31
2016-03-27T04:22:48.222Z,90.6
2016-03-27T04:23:48.210Z,90.94
2016-03-27T04:24:48.197Z,91.03
2016-03-27T04:25:48.183Z,91.31
2016-03-27T04:26:48.171Z,91.79
2016-03-27T04:27:48.158Z,91.89
2016-03-27T04:28:48.145Z,92.36
2016-03-27T04:29:48.131Z,92.46
2016-03-27T04:30:48.119Z,92.46
2016-03-27T04:31:48.121Z,92.74
2016-03-27T04:32:48.093Z,93.03
2016-03-27T04:33:48.080Z,93.41
2016-03-27T04:34:48.067Z,93.51
2016-03-27T04:35:48.070Z,93.27
2016-03-27T04:36:48.042Z,93.74
2016-03-27T04:37:48.029Z,93.55
2016-03-27T04:38:48.015Z,94.13
2016-03-27T04:39:48.003Z,94.32
2016-03-27T04:40:47.989Z,94.22
2016-03-27T04:41:47.977Z,94.51
2016-03-27T04:42:47.964Z,94.13
2016-03-27T04:43:47.950Z,94.03
2016-03-27T04:44:47.938Z,94.6
2016-03-27T04:45:47.925Z,94.42
2016-03-27T04:46:47.912Z,94.22
2016-03-27T04:47:47.899Z,94.98
2016-03-27T04:48:47.902Z,94.89
2016-03-27T04:49:47.889Z,95.46
2016-03-27T04:50:47.860Z,95.46
2016-03-27T04:51:47.863Z,95.75
2016-03-27T04:52:47.850Z,96.03
2016-03-27T04:53:47.837Z,95.84
2016-03-27T04:54:47.824Z,95.56
2016-03-27T04:55:47.796Z,94.98
2016-03-27T04:56:47.782Z,94.22
2016-03-27T04:57:47.769Z,94.51
2016-03-27T04:58:47.757Z,94.98
2016-03-27T04:59:47.743Z,95.36
2016-03-27T05:00:47.731Z,95.65
2016-03-27T05:01:47.718Z,95.6
2016-03-27T05:02:47.704Z,96.36
2016-03-27T05:03:47.692Z,96.26
2016-03-27T05:04:47.679Z,96.74
2016-03-27T05:05:47.665Z,97.03
2016-03-27T05:06:47.654Z,97.41
2016-03-27T05:07:47.640Z,98.46
2016-03-27T05:08:47.628Z,98.27
2016-03-27T05:09:47.615Z,98.17
2016-03-27T05:10:47.601Z,98.93
2016-03-27T05:11:47.589Z,98.83
2016-03-27T05:12:47.575Z,99.12
2016-03-27T05:13:47.562Z,99.31
2016-03-27T05:14:47.549Z,99.69
2016-03-27T05:15:47.537Z,99.5
2016-03-27T05:16:47.524Z,99.88
2016-03-27T05:17:47.511Z,99.64
2016-03-27T05:18:47.498Z,99.99
2016-03-27T05:19:47.485Z,99.99
2016-03-27T05:20:47.472Z,99.99
2016-03-27T05:21:47.459Z,99.99
2016-03-27T05:22:47.430Z,99.99
2016-03-27T05:23:47.418Z,99.99
2016-03-27T05:24:47.421Z,99.99
2016-03-27T05:25:47.407Z,99.99
2016-03-27T05:26:47.380Z,99.99
2016-03-27T05:27:47.366Z,99.99
2016-03-27T05:28:47.352Z,99.99
2016-03-27T05:29:47.341Z,99.99
2016-03-27T05:30:47.327Z,99.99
2016-03-27T05:31:47.314Z,99.99
2016-03-27T05:32:47.301Z,99.99
2016-03-27T05:33:47.304Z,99.99
2016-03-27T05:34:47.276Z,99.99
2016-03-27T05:35:47.263Z,99.99
2016-03-27T05:36:47.249Z,99.99
2016-03-27T05:37:47.220Z,99.99
2016-03-27T05:38:47.224Z,99.99
2016-03-27T05:39:47.195Z,99.99
2016-03-27T05:40:47.181Z,99.99
2016-03-27T05:41:47.170Z,99.99
2016-03-27T05:42:47.172Z,99.99
2016-03-27T05:43:47.143Z,99.99
2016-03-27T05:44:47.131Z,99.99
2016-03-27T05:45:47.117Z,99.99
2016-03-27T05:46:47.105Z,99.99
2016-03-27T05:47:47.091Z,99.99
2016-03-27T05:48:47.078Z,99.99
2016-03-27T05:49:47.066Z,99.99
2016-03-27T05:50:47.053Z,99.99
2016-03-27T05:51:47.039Z,99.99
2016-03-27T05:52:47.012Z,99.99
2016-03-27T05:53:46.999Z,99.99
2016-03-27T05:54:46.985Z,99.99
2016-03-27T05:55:46.972Z,99.99
2016-03-27T05:56:46.960Z,99.99
2016-03-27T05:57:46.946Z,99.99
2016-03-27T05:58:46.933Z,99.99
2016-03-27T05:59:46.921Z,99.99
2016-03-27T06:00:47.017Z,99.99
2016-03-27T06:01:46.896Z,99.99
2016-03-27T06:02:46.866Z,99.99
2016-03-27T06:03:46.868Z,99.99
2016-03-27T06:04:46.857Z,99.99
2016-03-27T06:05:46.827Z,99.99
2016-03-27T06:06:46.829Z,99.99
2016-03-27T06:07:46.802Z,99.99
2016-03-27T06:08:46.789Z,99.99
2016-03-27T06:09:46.776Z,99.99
2016-03-27T06:10:46.763Z,99.99
2016-03-27T06:11:46.750Z,99.99
2016-03-27T06:12:46.737Z,99.99
2016-03-27T06:13:46.724Z,99.99
2016-03-27T06:14:46.711Z,99.99
2016-03-27T06:15:46.697Z,99.99
2016-03-27T06:16:46.686Z,99.99
2016-03-27T06:17:46.656Z,99.99
2016-03-27T06:18:46.644Z,99.99
2016-03-27T06:19:46.631Z,99.99
2016-03-27T06:20:46.617Z,99.99
2016-03-27T06:21:46.605Z,99.99
2016-03-27T06:22:46.592Z,99.99
2016-03-27T06:23:46.579Z,99.99
2016-03-27T06:24:46.566Z,99.99
2016-03-27T06:25:46.553Z,99.99
2016-03-27T06:26:46.524Z,99.99
2016-03-27T06:27:46.512Z,99.99
2016-03-27T06:28:46.499Z,99.99
2016-03-27T06:29:46.485Z,99.99
2016-03-27T06:30:46.474Z,99.99
2016-03-27T06:31:46.460Z,99.99
2016-03-27T06:32:46.571Z,99.99
2016-03-27T06:33:46.435Z,99.64
2016-03-27T06:34:46.421Z,99.74
2016-03-27T06:35:46.408Z,99.99
2016-03-27T06:36:46.379Z,99.99
2016-03-27T06:37:46.382Z,99.99
2016-03-27T06:38:46.354Z,99.99
2016-03-27T06:39:46.340Z,99.99
2016-03-27T06:40:46.328Z,99.99
2016-03-27T06:41:46.315Z,99.97
2016-03-27T06:42:46.317Z,99.99
2016-03-27T06:43:46.290Z,99.5
2016-03-27T06:44:46.276Z,99.69
2016-03-27T06:45:46.264Z,99.5
2016-03-27T06:46:46.250Z,97.97
2016-03-27T06:47:46.237Z,97.88
2016-03-27T06:48:46.225Z,98.07
2016-03-27T06:49:46.212Z,98.17
2016-03-27T06:50:46.183Z,97.22
2016-03-27T06:51:46.186Z,97.31
2016-03-27T06:52:46.157Z,97.41
2016-03-27T06:53:46.144Z,96.93
2016-03-27T06:54:46.130Z,97.41
2016-03-27T06:55:46.119Z,98.26
2016-03-27T06:56:46.105Z,98.26
2016-03-27T06:57:46.091Z,97.97
2016-03-27T06:58:46.080Z,98.83
2016-03-27T06:59:46.066Z,98.93
2016-03-27T07:00:46.054Z,97.97
2016-03-27T07:01:46.041Z,98.17
2016-03-27T07:02:46.012Z,98.74
2016-03-27T07:03:45.999Z,98.74
2016-03-27T07:04:45.986Z,98.64
2016-03-27T07:05:45.973Z,97.97
2016-03-27T07:06:45.960Z,99.02
2016-03-27T07:07:45.948Z,99.02
2016-03-27T07:08:45.935Z,99.11
2016-03-27T07:09:45.921Z,99.21
2016-03-27T07:10:45.892Z,98.64
2016-03-27T07:11:45.880Z,99.3
2016-03-27T07:12:45.867Z,99.5
2016-03-27T07:13:45.853Z,99.5
2016-03-27T07:14:45.857Z,99.69
2016-03-27T07:15:45.828Z,99.69
2016-03-27T07:16:45.815Z,99.02
2016-03-27T07:17:45.896Z,99.21
2016-03-27T07:18:45.789Z,99.3
2016-03-27T07:19:45.776Z,99.88
2016-03-27T07:20:45.764Z,99.3
2016-03-27T07:21:45.750Z,99.69
2016-03-27T07:22:45.722Z,99.5
2016-03-27T07:23:45.709Z,98.64
2016-03-27T07:24:45.697Z,97.88
2016-03-27T07:25:45.683Z,98.74
2016-03-27T07:26:45.686Z,98.74
2016-03-27T07:27:45.658Z,98.74
2016-03-27T07:28:45.505Z,97.78
2016-03-27T07:29:45.631Z,97.41
2016-03-27T07:30:45.619Z,97.22
2016-03-27T07:31:45.605Z,96.36
2016-03-27T07:32:45.608Z,96.65
2016-03-27T07:33:45.580Z,96.45
2016-03-27T07:34:45.551Z,96.65
2016-03-27T07:35:45.538Z,96.26
2016-03-27T07:36:45.526Z,95.79
2016-03-27T07:37:45.512Z,95.32
2016-03-27T07:38:45.499Z,95.32
2016-03-27T07:39:45.487Z,95.98
2016-03-27T07:40:45.473Z,95.32
2016-03-27T07:41:45.461Z,95.51
2016-03-27T07:42:45.448Z,96.26
2016-03-27T07:43:45.434Z,96.45
2016-03-27T07:44:45.423Z,96.45
2016-03-27T07:45:45.409Z,95.51
2016-03-27T07:46:45.380Z,96.26
2016-03-27T07:47:45.617Z,95.32
2016-03-27T07:48:45.354Z,95.41
2016-03-27T07:49:45.342Z,95.7
2016-03-27T07:50:45.328Z,94.93
2016-03-27T07:51:45.316Z,94.46
2016-03-27T07:52:45.319Z,94.37
2016-03-27T07:53:45.289Z,94.7
2016-03-27T07:54:45.277Z,94.32
2016-03-27T07:55:45.264Z,93.27
2016-03-27T07:56:45.266Z,92.89
2016-03-27T07:57:45.239Z,92.99
2016-03-27T07:58:45.225Z,93.65
2016-03-27T07:59:45.212Z,93.55
2016-03-27T08:00:45.184Z,93.08
2016-03-27T08:01:45.171Z,93.27
2016-03-27T08:02:45.266Z,92.03
2016-03-27T08:03:45.144Z,91.47
2016-03-27T08:04:45.194Z,91.66
2016-03-27T08:05:45.118Z,91.28
2016-03-27T08:06:45.107Z,91.37
2016-03-27T08:07:45.093Z,91.18
2016-03-27T08:08:45.079Z,91.47
2016-03-27T08:09:45.068Z,90.14
2016-03-27T08:10:45.054Z,89.37
2016-03-27T08:11:45.056Z,89.09
2016-03-27T08:12:45.029Z,88.85
2016-03-27T08:13:45.031Z,89.61
2016-03-27T08:14:45.003Z,89.42
2016-03-27T08:15:44.990Z,89.61
2016-03-27T08:16:44.976Z,89.42
2016-03-27T08:17:44.964Z,88.56
2016-03-27T08:18:44.951Z,88.85
2016-03-27T08:19:44.937Z,87.9
2016-03-27T08:20:44.925Z,86.94
2016-03-27T08:21:44.928Z,86.09
2016-03-27T08:22:44.900Z,85.85
2016-03-27T08:23:44.886Z,84.36
2016-03-27T08:24:44.889Z,81.93
2016-03-27T08:25:44.875Z,82.41
2016-03-27T08:26:44.691Z,82.12
2016-03-27T08:27:44.850Z,81.84
2016-03-27T08:28:44.836Z,81.55
2016-03-27T08:29:45.621Z,80.88
2016-03-27T08:30:44.811Z,81.98
2016-03-27T08:31:44.799Z,81.41
2016-03-27T08:32:44.785Z,80.69
2016-03-27T08:33:44.772Z,79.46
2016-03-27T08:34:44.775Z,78.25
2016-03-27T08:35:44.762Z,77.87
2016-03-27T08:36:44.749Z,78.58
2016-03-27T08:37:44.736Z,78.2
2016-03-27T08:38:44.723Z,77.69
2016-03-27T08:39:44.727Z,79.11
2016-03-27T08:40:44.713Z,78.83
2016-03-27T08:41:44.700Z,79.68
2016-03-27T08:42:44.671Z,80.41
2016-03-27T08:43:44.674Z,81.36
2016-03-27T08:44:44.661Z,80.98
2016-03-27T08:45:44.648Z,80.98
2016-03-27T08:46:44.635Z,79.74
2016-03-27T08:47:44.622Z,81.46
2016-03-27T08:48:44.610Z,80.98
2016-03-27T08:49:44.612Z,79.17
2016-03-27T08:50:44.599Z,79.64
2016-03-27T08:51:44.587Z,79.46
2016-03-27T08:52:44.589Z,79.36
2016-03-27T08:53:44.560Z,79.07
2016-03-27T08:54:44.548Z,79.46
2016-03-27T08:55:44.534Z,80.41
2016-03-27T08:56:44.537Z,80.5
2016-03-27T08:57:44.509Z,81.02
2016-03-27T08:58:44.511Z,80.83
2016-03-27T08:59:44.499Z,80.83
2016-03-27T09:00:44.485Z,80.64
2016-03-27T09:01:44.472Z,79.93
2016-03-27T09:02:44.460Z,78.78
2016-03-27T09:03:44.446Z,78.88
2016-03-27T09:04:44.434Z,79.36
2016-03-27T09:05:44.436Z,80.31
2016-03-27T09:06:44.424Z,79.55
2016-03-27T09:07:44.408Z,79.07
2016-03-27T09:08:44.396Z,79.3
2016-03-27T09:09:44.383Z,78.83
2016-03-27T09:10:44.369Z,78.06
2016-03-27T09:11:44.357Z,77.78
2016-03-27T09:12:44.344Z,77.97
2016-03-27T09:13:44.331Z,77.59
2016-03-27T09:14:44.318Z,77.4
2016-03-27T09:15:44.321Z,77.59
2016-03-27T09:16:44.308Z,78.64
2016-03-27T09:17:44.295Z,77.78
2016-03-27T09:18:44.641Z,76.92
2016-03-27T09:19:44.269Z,76.92
2016-03-27T09:20:44.271Z,76.64
2016-03-27T09:21:44.260Z,75.78
2016-03-27T09:22:44.449Z,75.43
2016-03-27T09:23:44.228Z,75.43
2016-03-27T09:24:44.219Z,76.1
2016-03-27T09:25:44.178Z,75.91
2016-03-27T09:26:44.169Z,76.1
2016-03-27T09:27:44.145Z,75.53
2016-03-27T09:28:44.123Z,75.53
2016-03-27T09:29:44.106Z,75.34
2016-03-27T09:30:44.104Z,76.48
2016-03-27T09:31:44.087Z,74.99
2016-03-27T09:32:44.070Z,73.56
2016-03-27T09:33:44.053Z,73.66
2016-03-27T09:34:44.039Z,73.14
2016-03-27T09:35:44.040Z,74.48
2016-03-27T09:36:44.026Z,74.96
2016-03-27T09:37:44.012Z,72.96
2016-03-27T09:38:43.998Z,73.43
2016-03-27T09:39:44.000Z,73.33
2016-03-27T09:40:43.986Z,73.72
2016-03-27T09:41:43.974Z,74.57
2016-03-27T09:42:43.959Z,74.96
2016-03-27T09:43:43.961Z,74.77
2016-03-27T09:44:43.948Z,73.72
2016-03-27T09:45:43.950Z,73.91
2016-03-27T09:46:43.922Z,73.52
2016-03-27T09:47:43.924Z,73.91
2016-03-27T09:48:43.911Z,73.08
2016-03-27T09:49:43.898Z,72.61
2016-03-27T09:50:44.088Z,70.89
2016-03-27T09:51:43.873Z,71.37
2016-03-27T09:52:43.875Z,70.73
2016-03-27T09:53:43.862Z,70.42
2016-03-27T09:54:43.864Z,70.61
2016-03-27T09:55:43.837Z,70.7
2016-03-27T09:56:43.839Z,70.42
2016-03-27T09:57:43.810Z,70.61
2016-03-27T09:58:43.814Z,70.98
2016-03-27T09:59:43.816Z,70.42
2016-03-27T10:00:43.802Z,69.84
2016-03-27T10:01:43.790Z,69.93
2016-03-27T10:02:43.777Z,70.13
2016-03-27T10:03:43.764Z,70.13
2016-03-27T10:04:43.767Z,69.37
2016-03-27T10:05:43.753Z,69.93
2016-03-27T10:06:43.741Z,69.56
2016-03-27T10:07:43.744Z,68.6
2016-03-27T10:08:43.730Z,67.65
2016-03-27T10:09:43.718Z,67.07
2016-03-27T10:10:43.705Z,67.68
2016-03-27T10:11:43.691Z,66.98
2016-03-27T10:12:43.710Z,65.93
2016-03-27T10:13:43.682Z,66.53
2016-03-27T10:14:43.887Z,67.17
2016-03-27T10:15:43.671Z,67.11
2016-03-27T10:16:43.658Z,67.24
2016-03-27T10:17:43.645Z,66.28
2016-03-27T10:18:43.648Z,66.63
2016-03-27T10:19:43.635Z,65.23
2016-03-27T10:20:43.622Z,64.31
2016-03-27T10:21:43.626Z,64.02
2016-03-27T10:22:43.612Z,64.5
2016-03-27T10:23:43.598Z,64.82
2016-03-27T10:24:43.602Z,63.57
2016-03-27T10:25:43.589Z,63.83
2016-03-27T10:26:43.575Z,63.48
2016-03-27T10:27:43.579Z,63.29
2016-03-27T10:28:43.565Z,62.9
2016-03-27T10:29:43.568Z,62.81
2016-03-27T10:30:43.555Z,63.64
2016-03-27T10:31:43.542Z,63.83
2016-03-27T10:32:43.544Z,63.73
2016-03-27T10:33:43.376Z,64.09
2016-03-27T10:34:43.519Z,64.75
2016-03-27T10:35:43.521Z,64.85
2016-03-27T10:36:43.509Z,64.56
2016-03-27T10:37:43.496Z,63.89
2016-03-27T10:38:43.499Z,64.47
2016-03-27T10:39:43.486Z,63.7
2016-03-27T10:40:43.488Z,62.84
2016-03-27T10:41:43.475Z,62.4
2016-03-27T10:42:43.478Z,61.47
2016-03-27T10:43:43.465Z,61.85
2016-03-27T10:44:43.452Z,62.17
2016-03-27T10:45:43.440Z,62.52
2016-03-27T10:46:43.443Z,62.62
2016-03-27T10:47:43.430Z,62.24
2016-03-27T10:48:43.416Z,61.38
2016-03-27T10:49:43.403Z,60.96
2016-03-27T10:50:43.406Z,59.81
2016-03-27T10:51:43.393Z,59.94
2016-03-27T10:52:43.379Z,60.42
2016-03-27T10:53:43.382Z,58.34
2016-03-27T10:54:43.370Z,57.61
2016-03-27T10:55:43.373Z,57.45
2016-03-27T10:56:43.375Z,57.16
2016-03-27T10:57:43.362Z,55.24
2016-03-27T10:58:43.350Z,55.82
2016-03-27T10:59:43.352Z,56.77
2016-03-27T11:00:43.339Z,56.59
2016-03-27T11:01:43.342Z,56.39
2016-03-27T11:02:43.344Z,55.53
2016-03-27T11:03:43.332Z,55.82
2016-03-27T11:04:43.334Z,55.91
2016-03-27T11:05:43.305Z,55.91
2016-03-27T11:06:43.309Z,56.65
2016-03-27T11:07:43.311Z,55.88
2016-03-27T11:08:43.297Z,55.41
2016-03-27T11:09:43.300Z,55.24
2016-03-27T11:10:43.288Z,54.12
2016-03-27T11:11:43.275Z,52.81
2016-03-27T11:12:43.277Z,52.71
2016-03-27T11:13:43.280Z,53.09
2016-03-27T11:14:43.283Z,52.23
2016-03-27T11:15:43.270Z,52.91
2016-03-27T11:16:43.257Z,53.26
2016-03-27T11:17:43.260Z,52.95
2016-03-27T11:18:43.246Z,53.23
2016-03-27T11:19:43.250Z,53.91
2016-03-27T11:20:43.237Z,53.91
2016-03-27T11:21:43.223Z,54.07
2016-03-27T11:22:43.243Z,54.1
2016-03-27T11:23:43.229Z,54.45
2016-03-27T11:24:43.231Z,54.45
2016-03-27T11:25:43.203Z,54.64
2016-03-27T11:26:43.206Z,54.26
2016-03-27T11:27:43.209Z,54.55
2016-03-27T11:28:43.195Z,54.52
2016-03-27T11:29:43.183Z,55.16
2016-03-27T11:30:43.186Z,55.74
2016-03-27T11:31:43.172Z,56.98
2016-03-27T11:32:43.175Z,57.84
2016-03-27T11:33:43.162Z,58.19
2016-03-27T11:34:43.165Z,57.71
2016-03-27T11:35:43.137Z,57.43
2016-03-27T11:36:43.139Z,57.71
2016-03-27T11:37:43.125Z,58.1
2016-03-27T11:38:43.113Z,57.97
2016-03-27T11:39:43.116Z,57.5
2016-03-27T11:40:43.103Z,57.53
2016-03-27T11:41:43.090Z,57.53
2016-03-27T11:42:43.093Z,58
2016-03-27T11:43:43.080Z,58.36
2016-03-27T11:44:43.082Z,59.15
2016-03-27T11:45:43.069Z,59.53
2016-03-27T11:46:43.057Z,60.58
2016-03-27T11:47:43.043Z,60.01
2016-03-27T11:48:43.030Z,60.84
2016-03-27T11:49:43.033Z,60.74
2016-03-27T11:50:43.036Z,60.64
2016-03-27T11:51:43.023Z,60.46
2016-03-27T11:52:43.010Z,61.51
2016-03-27T11:53:42.982Z,61.22
2016-03-27T11:54:43.000Z,60.84
2016-03-27T11:55:42.971Z,61.32
2016-03-27T11:56:42.974Z,60.84
2016-03-27T11:57:42.962Z,60.36
2016-03-27T11:58:42.948Z,59.98
2016-03-27T11:59:42.951Z,59.72
2016-03-27T12:00:42.938Z,59.81
2016-03-27T12:01:42.940Z,59.63
2016-03-27T12:02:42.911Z,59.81
2016-03-27T12:03:42.900Z,59.91
2016-03-27T12:04:42.902Z,60.77
2016-03-27T12:05:42.905Z,60.3
2016-03-27T12:06:42.876Z,60.2
2016-03-27T12:07:42.878Z,58.95
2016-03-27T12:08:42.866Z,58.32
2016-03-27T12:09:42.869Z,57.58
2016-03-27T12:10:42.856Z,55.51
2016-03-27T12:11:42.842Z,53.26
2016-03-27T12:12:42.845Z,52.83
2016-03-27T12:13:42.832Z,51.51
2016-03-27T12:14:42.819Z,48.57
2016-03-27T12:15:42.821Z,47.25
2016-03-27T12:16:42.825Z,47.25
2016-03-27T12:17:42.812Z,46.67
2016-03-27T12:18:42.846Z,45.61
2016-03-27T12:19:42.801Z,46.28
2016-03-27T12:20:42.789Z,47.41
2016-03-27T12:21:42.791Z,47.22
2016-03-27T12:22:42.793Z,46.86
2016-03-27T12:23:42.782Z,46.21
2016-03-27T12:24:42.784Z,45.64
2016-03-27T12:25:42.770Z,44.87
2016-03-27T12:26:42.773Z,44.77
2016-03-27T12:27:42.776Z,44.51
2016-03-27T12:28:42.763Z,44.7
2016-03-27T12:29:42.765Z,45.08
2016-03-27T12:30:42.597Z,45.54
2016-03-27T12:31:42.756Z,45.54
2016-03-27T12:32:42.758Z,45.64
2016-03-27T12:33:42.933Z,46.58
2016-03-27T12:34:42.748Z,47.61
2016-03-27T12:35:42.751Z,46.84
2016-03-27T12:36:42.738Z,46.26
2016-03-27T12:37:42.741Z,47.61
2016-03-27T12:38:42.744Z,47.68
2016-03-27T12:39:42.730Z,47.08
2016-03-27T12:40:42.733Z,46.17
2016-03-27T12:41:42.719Z,45.9
2016-03-27T12:42:42.723Z,45.37
2016-03-27T12:43:42.741Z,45.18
2016-03-27T12:44:42.712Z,43.85
2016-03-27T12:45:42.715Z,43.76
2016-03-27T12:46:42.718Z,42.7
2016-03-27T12:47:42.705Z,42.6
2016-03-27T12:48:42.738Z,41.56
2016-03-27T12:49:42.711Z,41.95
2016-03-27T12:50:42.697Z,42.36
2016-03-27T12:51:42.699Z,41.49
2016-03-27T12:52:42.703Z,41.38
2016-03-27T12:53:42.690Z,41.86
2016-03-27T12:54:42.708Z,42.05